sensor_id;sensor_type;location;lat;lon;timestamp;pressure;altitude;pressure_sealevel;temperature
69597;BMP180;70000;51.176;-115.568;2023-08-17T00:01:31;86460.60;;;37.14
69597;BMP180;70000;51.176;-115.568;2023-08-17T00:04:01;86462.40;;;37.80
69597;BMP180;70000;51.176;-115.568;2023-08-17T00:06:30;86457.80;;;38.30
69597;BMP180;70000;51.176;-115.568;2023-08-17T00:09:00;86458.20;;;38.80
69597;BMP180;70000;51.176;-115.568;2023-08-17T00:11:30;86458.40;;;39.44
69597;BMP180;70000;51.176;-115.568;2023-08-17T00:13:59;86461.00;;;40.04
69597;BMP180;70000;51.176;-115.568;2023-08-17T00:16:29;86461.40;;;40.52
69597;BMP180;70000;51.176;-115.568;2023-08-17T00:18:59;86458.40;;;41.00
69597;BMP180;70000;51.176;-115.568;2023-08-17T00:21:29;86459.40;;;41.30
69597;BMP180;70000;51.176;-115.568;2023-08-17T00:23:58;86460.20;;;41.12
69597;BMP180;70000;51.176;-115.568;2023-08-17T00:26:28;86465.80;;;41.00
69597;BMP180;70000;51.176;-115.568;2023-08-17T00:28:57;86456.80;;;41.18
69597;BMP180;70000;51.176;-115.568;2023-08-17T00:31:27;86458.20;;;41.34
69597;BMP180;70000;51.176;-115.568;2023-08-17T00:33:56;86459.00;;;41.30
69597;BMP180;70000;51.176;-115.568;2023-08-17T00:36:29;86462.00;;;41.20
69597;BMP180;70000;51.176;-115.568;2023-08-17T00:38:58;86471.00;;;41.20
69597;BMP180;70000;51.176;-115.568;2023-08-17T00:41:28;86467.20;;;40.82
69597;BMP180;70000;51.176;-115.568;2023-08-17T00:44:00;86467.80;;;40.22
69597;BMP180;70000;51.176;-115.568;2023-08-17T00:46:31;86476.00;;;39.70
69597;BMP180;70000;51.176;-115.568;2023-08-17T00:49:01;86476.80;;;39.12
69597;BMP180;70000;51.176;-115.568;2023-08-17T00:51:31;86470.20;;;38.48
69597;BMP180;70000;51.176;-115.568;2023-08-17T00:54:03;86464.80;;;38.00
69597;BMP180;70000;51.176;-115.568;2023-08-17T00:56:33;86470.20;;;37.70
69597;BMP180;70000;51.176;-115.568;2023-08-17T00:59:03;86470.60;;;37.60
69597;BMP180;70000;51.176;-115.568;2023-08-17T01:01:33;86466.60;;;37.40
69597;BMP180;70000;51.176;-115.568;2023-08-17T01:04:03;86464.40;;;37.28
69597;BMP180;70000;51.176;-115.568;2023-08-17T01:06:33;86465.20;;;37.20
69597;BMP180;70000;51.176;-115.568;2023-08-17T01:09:03;86464.80;;;37.40
69597;BMP180;70000;51.176;-115.568;2023-08-17T01:11:49;86461.80;;;37.72
69597;BMP180;70000;51.176;-115.568;2023-08-17T01:14:48;86465.80;;;37.90
69597;BMP180;70000;51.176;-115.568;2023-08-17T01:17:43;86464.20;;;37.40
69597;BMP180;70000;51.176;-115.568;2023-08-17T01:20:15;86465.80;;;36.88
69597;BMP180;70000;51.176;-115.568;2023-08-17T01:22:49;86457.80;;;36.40
69597;BMP180;70000;51.176;-115.568;2023-08-17T01:25:19;86453.40;;;36.00
69597;BMP180;70000;51.176;-115.568;2023-08-17T01:27:48;86460.20;;;35.64
69597;BMP180;70000;51.176;-115.568;2023-08-17T01:30:19;86456.80;;;35.20
69597;BMP180;70000;51.176;-115.568;2023-08-17T01:33:01;86458.00;;;34.80
69597;BMP180;70000;51.176;-115.568;2023-08-17T01:35:47;86460.00;;;34.40
69597;BMP180;70000;51.176;-115.568;2023-08-17T01:38:21;86461.40;;;34.02
69597;BMP180;70000;51.176;-115.568;2023-08-17T01:40:53;86460.40;;;33.76
69597;BMP180;70000;51.176;-115.568;2023-08-17T01:46:34;86462.00;;;33.08
69597;BMP180;70000;51.176;-115.568;2023-08-17T01:49:04;86458.60;;;33.00
69597;BMP180;70000;51.176;-115.568;2023-08-17T01:51:38;86460.00;;;32.78
69597;BMP180;70000;51.176;-115.568;2023-08-17T01:54:23;86462.40;;;32.60
69597;BMP180;70000;51.176;-115.568;2023-08-17T02:01:36;86470.40;;;32.12
69597;BMP180;70000;51.176;-115.568;2023-08-17T02:04:06;86463.40;;;32.00
69597;BMP180;70000;51.176;-115.568;2023-08-17T02:06:35;86460.00;;;31.80
69597;BMP180;70000;51.176;-115.568;2023-08-17T02:09:04;86457.00;;;31.60
69597;BMP180;70000;51.176;-115.568;2023-08-17T02:14:38;86457.60;;;31.14
69597;BMP180;70000;51.176;-115.568;2023-08-17T02:17:07;86456.80;;;31.10
69597;BMP180;70000;51.176;-115.568;2023-08-17T02:19:36;86458.40;;;30.94
69597;BMP180;70000;51.176;-115.568;2023-08-17T02:22:06;86462.40;;;30.80
69597;BMP180;70000;51.176;-115.568;2023-08-17T02:24:37;86465.60;;;30.70
69597;BMP180;70000;51.176;-115.568;2023-08-17T02:27:06;86469.60;;;30.56
69597;BMP180;70000;51.176;-115.568;2023-08-17T02:29:36;86470.80;;;30.40
69597;BMP180;70000;51.176;-115.568;2023-08-17T02:32:05;86467.60;;;30.30
69597;BMP180;70000;51.176;-115.568;2023-08-17T02:34:37;86474.80;;;30.20
69597;BMP180;70000;51.176;-115.568;2023-08-17T02:37:06;86480.80;;;30.06
69597;BMP180;70000;51.176;-115.568;2023-08-17T02:39:36;86477.80;;;29.90
69597;BMP180;70000;51.176;-115.568;2023-08-17T02:42:05;86472.20;;;29.80
69597;BMP180;70000;51.176;-115.568;2023-08-17T02:44:35;86472.20;;;29.70
69597;BMP180;70000;51.176;-115.568;2023-08-17T02:47:05;86469.60;;;29.60
69597;BMP180;70000;51.176;-115.568;2023-08-17T02:49:37;86477.80;;;29.40
69597;BMP180;70000;51.176;-115.568;2023-08-17T02:52:07;86476.00;;;29.30
69597;BMP180;70000;51.176;-115.568;2023-08-17T02:54:36;86477.40;;;29.20
69597;BMP180;70000;51.176;-115.568;2023-08-17T02:57:08;86472.60;;;29.10
69597;BMP180;70000;51.176;-115.568;2023-08-17T02:59:38;86470.40;;;28.92
69597;BMP180;70000;51.176;-115.568;2023-08-17T03:02:07;86469.20;;;28.88
69597;BMP180;70000;51.176;-115.568;2023-08-17T03:04:37;86469.60;;;28.80
69597;BMP180;70000;51.176;-115.568;2023-08-17T03:07:09;86473.80;;;28.70
69597;BMP180;70000;51.176;-115.568;2023-08-17T03:09:38;86469.80;;;28.56
69597;BMP180;70000;51.176;-115.568;2023-08-17T03:12:08;86472.60;;;28.42
69597;BMP180;70000;51.176;-115.568;2023-08-17T03:14:37;86471.80;;;28.30
69597;BMP180;70000;51.176;-115.568;2023-08-17T03:17:07;86474.80;;;28.20
69597;BMP180;70000;51.176;-115.568;2023-08-17T03:19:37;86477.40;;;28.04
69597;BMP180;70000;51.176;-115.568;2023-08-17T03:22:06;86477.40;;;27.90
69597;BMP180;70000;51.176;-115.568;2023-08-17T03:24:36;86478.20;;;27.80
69597;BMP180;70000;51.176;-115.568;2023-08-17T03:27:06;86482.20;;;27.70
69597;BMP180;70000;51.176;-115.568;2023-08-17T03:29:36;86480.40;;;27.60
69597;BMP180;70000;51.176;-115.568;2023-08-17T03:32:06;86487.80;;;27.50
69597;BMP180;70000;51.176;-115.568;2023-08-17T03:34:35;86483.20;;;27.40
69597;BMP180;70000;51.176;-115.568;2023-08-17T03:37:06;86492.20;;;27.30
69597;BMP180;70000;51.176;-115.568;2023-08-17T03:39:35;86501.60;;;27.20
69597;BMP180;70000;51.176;-115.568;2023-08-17T03:42:06;86503.60;;;27.10
69597;BMP180;70000;51.176;-115.568;2023-08-17T03:44:36;86506.60;;;27.00
69597;BMP180;70000;51.176;-115.568;2023-08-17T03:47:06;86506.60;;;26.90
69597;BMP180;70000;51.176;-115.568;2023-08-17T03:49:35;86511.20;;;26.90
69597;BMP180;70000;51.176;-115.568;2023-08-17T03:52:06;86505.80;;;26.80
69597;BMP180;70000;51.176;-115.568;2023-08-17T03:54:36;86513.60;;;26.70
69597;BMP180;70000;51.176;-115.568;2023-08-17T03:57:06;86511.00;;;26.60
69597;BMP180;70000;51.176;-115.568;2023-08-17T03:59:35;86514.20;;;26.50
69597;BMP180;70000;51.176;-115.568;2023-08-17T04:02:05;86515.00;;;26.40
69597;BMP180;70000;51.176;-115.568;2023-08-17T04:04:34;86518.00;;;26.40
69597;BMP180;70000;51.176;-115.568;2023-08-17T04:07:04;86515.40;;;26.30
69597;BMP180;70000;51.176;-115.568;2023-08-17T04:09:36;86514.00;;;26.26
69597;BMP180;70000;51.176;-115.568;2023-08-17T04:12:06;86520.60;;;26.20
69597;BMP180;70000;51.176;-115.568;2023-08-17T04:14:36;86511.40;;;26.10
69597;BMP180;70000;51.176;-115.568;2023-08-17T04:17:06;86516.00;;;26.00
69597;BMP180;70000;51.176;-115.568;2023-08-17T04:19:36;86521.20;;;26.00
69597;BMP180;70000;51.176;-115.568;2023-08-17T04:22:06;86519.40;;;25.90
69597;BMP180;70000;51.176;-115.568;2023-08-17T04:24:55;86522.40;;;25.82
69597;BMP180;70000;51.176;-115.568;2023-08-17T04:27:24;86517.80;;;25.80
69597;BMP180;70000;51.176;-115.568;2023-08-17T04:29:54;86523.60;;;25.70
69597;BMP180;70000;51.176;-115.568;2023-08-17T04:32:24;86520.60;;;25.70
69597;BMP180;70000;51.176;-115.568;2023-08-17T04:34:55;86522.60;;;25.62
69597;BMP180;70000;51.176;-115.568;2023-08-17T04:37:25;86522.00;;;25.60
69597;BMP180;70000;51.176;-115.568;2023-08-17T04:39:55;86522.60;;;25.60
69597;BMP180;70000;51.176;-115.568;2023-08-17T04:42:25;86516.00;;;25.50
69597;BMP180;70000;51.176;-115.568;2023-08-17T04:44:54;86516.80;;;25.50
69597;BMP180;70000;51.176;-115.568;2023-08-17T04:47:23;86519.80;;;25.42
69597;BMP180;70000;51.176;-115.568;2023-08-17T04:49:53;86515.20;;;25.40
69597;BMP180;70000;51.176;-115.568;2023-08-17T04:52:23;86516.20;;;25.30
69597;BMP180;70000;51.176;-115.568;2023-08-17T04:54:53;86520.60;;;25.30
69597;BMP180;70000;51.176;-115.568;2023-08-17T05:00:51;86516.60;;;25.10
69597;BMP180;70000;51.176;-115.568;2023-08-17T05:03:20;86509.40;;;25.10
69597;BMP180;70000;51.176;-115.568;2023-08-17T05:06:00;86510.40;;;25.00
69597;BMP180;70000;51.176;-115.568;2023-08-17T05:08:29;86514.20;;;24.90
69597;BMP180;70000;51.176;-115.568;2023-08-17T05:10:58;86519.00;;;24.90
69597;BMP180;70000;51.176;-115.568;2023-08-17T05:13:28;86517.80;;;24.80
69597;BMP180;70000;51.176;-115.568;2023-08-17T05:15:58;86512.20;;;24.80
69597;BMP180;70000;51.176;-115.568;2023-08-17T05:18:27;86510.40;;;24.70
69597;BMP180;70000;51.176;-115.568;2023-08-17T05:20:56;86515.00;;;24.60
69597;BMP180;70000;51.176;-115.568;2023-08-17T05:23:25;86512.80;;;24.52
69597;BMP180;70000;51.176;-115.568;2023-08-17T05:25:58;86516.60;;;24.50
69597;BMP180;70000;51.176;-115.568;2023-08-17T05:28:26;86517.20;;;24.40
69597;BMP180;70000;51.176;-115.568;2023-08-17T05:30:56;86524.40;;;24.30
69597;BMP180;70000;51.176;-115.568;2023-08-17T05:33:25;86528.60;;;24.30
69597;BMP180;70000;51.176;-115.568;2023-08-17T05:35:56;86530.60;;;24.20
69597;BMP180;70000;51.176;-115.568;2023-08-17T05:38:25;86530.20;;;24.10
69597;BMP180;70000;51.176;-115.568;2023-08-17T05:40:58;86530.60;;;24.00
69597;BMP180;70000;51.176;-115.568;2023-08-17T05:43:27;86528.20;;;24.00
69597;BMP180;70000;51.176;-115.568;2023-08-17T05:45:58;86530.00;;;23.90
69597;BMP180;70000;51.176;-115.568;2023-08-17T05:48:34;86527.80;;;23.80
69597;BMP180;70000;51.176;-115.568;2023-08-17T05:51:02;86528.40;;;23.70
69597;BMP180;70000;51.176;-115.568;2023-08-17T05:53:31;86529.40;;;23.60
69597;BMP180;70000;51.176;-115.568;2023-08-17T05:56:00;86535.80;;;23.60
69597;BMP180;70000;51.176;-115.568;2023-08-17T05:58:29;86534.00;;;23.50
69597;BMP180;70000;51.176;-115.568;2023-08-17T06:01:10;86531.00;;;23.40
69597;BMP180;70000;51.176;-115.568;2023-08-17T06:03:58;86528.40;;;23.30
69597;BMP180;70000;51.176;-115.568;2023-08-17T06:06:28;86526.40;;;23.30
69597;BMP180;70000;51.176;-115.568;2023-08-17T06:08:58;86527.20;;;23.20
69597;BMP180;70000;51.176;-115.568;2023-08-17T06:11:27;86528.80;;;23.10
69597;BMP180;70000;51.176;-115.568;2023-08-17T06:13:57;86530.20;;;23.06
69597;BMP180;70000;51.176;-115.568;2023-08-17T06:16:26;86533.20;;;23.00
69597;BMP180;70000;51.176;-115.568;2023-08-17T06:18:56;86525.60;;;22.90
69597;BMP180;70000;51.176;-115.568;2023-08-17T06:21:26;86530.80;;;22.84
69597;BMP180;70000;51.176;-115.568;2023-08-17T06:23:56;86532.40;;;22.80
69597;BMP180;70000;51.176;-115.568;2023-08-17T06:26:25;86535.80;;;22.70
69597;BMP180;70000;51.176;-115.568;2023-08-17T06:28:55;86534.40;;;22.60
69597;BMP180;70000;51.176;-115.568;2023-08-17T06:31:26;86538.20;;;22.60
69597;BMP180;70000;51.176;-115.568;2023-08-17T06:33:56;86543.20;;;22.50
69597;BMP180;70000;51.176;-115.568;2023-08-17T06:36:25;86534.60;;;22.50
69597;BMP180;70000;51.176;-115.568;2023-08-17T06:38:55;86539.20;;;22.40
69597;BMP180;70000;51.176;-115.568;2023-08-17T06:41:26;86541.20;;;22.30
69597;BMP180;70000;51.176;-115.568;2023-08-17T06:43:55;86542.00;;;22.30
69597;BMP180;70000;51.176;-115.568;2023-08-17T06:46:25;86540.00;;;22.20
69597;BMP180;70000;51.176;-115.568;2023-08-17T06:48:56;86546.00;;;22.20
69597;BMP180;70000;51.176;-115.568;2023-08-17T06:51:26;86539.60;;;22.10
69597;BMP180;70000;51.176;-115.568;2023-08-17T06:53:55;86539.00;;;22.08
69597;BMP180;70000;51.176;-115.568;2023-08-17T06:56:25;86538.00;;;22.00
69597;BMP180;70000;51.176;-115.568;2023-08-17T06:58:55;86538.00;;;21.90
69597;BMP180;70000;51.176;-115.568;2023-08-17T07:01:25;86541.60;;;21.90
69597;BMP180;70000;51.176;-115.568;2023-08-17T07:03:55;86534.60;;;21.80
69597;BMP180;70000;51.176;-115.568;2023-08-17T07:06:26;86540.80;;;21.74
69597;BMP180;70000;51.176;-115.568;2023-08-17T07:08:55;86539.80;;;21.70
69597;BMP180;70000;51.176;-115.568;2023-08-17T07:14:30;86536.00;;;21.60
69597;BMP180;70000;51.176;-115.568;2023-08-17T07:17:00;86534.80;;;21.56
69597;BMP180;70000;51.176;-115.568;2023-08-17T07:19:29;86536.20;;;21.50
69597;BMP180;70000;51.176;-115.568;2023-08-17T07:22:19;86539.20;;;21.50
69597;BMP180;70000;51.176;-115.568;2023-08-17T07:28:21;86540.80;;;21.32
69597;BMP180;70000;51.176;-115.568;2023-08-17T07:30:51;86539.80;;;21.30
69597;BMP180;70000;51.176;-115.568;2023-08-17T07:33:20;86534.60;;;21.30
69597;BMP180;70000;51.176;-115.568;2023-08-17T07:35:50;86533.00;;;21.30
69597;BMP180;70000;51.176;-115.568;2023-08-17T07:38:19;86536.40;;;21.24
69597;BMP180;70000;51.176;-115.568;2023-08-17T07:40:49;86532.80;;;21.20
69597;BMP180;70000;51.176;-115.568;2023-08-17T07:43:19;86532.80;;;21.10
69597;BMP180;70000;51.176;-115.568;2023-08-17T07:45:58;86532.40;;;21.10
69597;BMP180;70000;51.176;-115.568;2023-08-17T07:48:27;86532.80;;;21.00
69597;BMP180;70000;51.176;-115.568;2023-08-17T07:51:02;86533.40;;;20.90
69597;BMP180;70000;51.176;-115.568;2023-08-17T07:53:31;86530.60;;;20.86
69597;BMP180;70000;51.176;-115.568;2023-08-17T07:56:00;86534.40;;;20.80
69597;BMP180;70000;51.176;-115.568;2023-08-17T07:58:30;86536.00;;;20.70
69597;BMP180;70000;51.176;-115.568;2023-08-17T08:00:59;86533.20;;;20.70
69597;BMP180;70000;51.176;-115.568;2023-08-17T08:03:31;86532.00;;;20.60
69597;BMP180;70000;51.176;-115.568;2023-08-17T08:06:01;86531.40;;;20.60
69597;BMP180;70000;51.176;-115.568;2023-08-17T08:08:30;86530.80;;;20.50
69597;BMP180;70000;51.176;-115.568;2023-08-17T08:11:00;86526.20;;;20.42
69597;BMP180;70000;51.176;-115.568;2023-08-17T08:13:30;86525.80;;;20.40
69597;BMP180;70000;51.176;-115.568;2023-08-17T08:15:59;86521.80;;;20.30
69597;BMP180;70000;51.176;-115.568;2023-08-17T08:18:29;86523.80;;;20.20
69597;BMP180;70000;51.176;-115.568;2023-08-17T08:21:00;86517.80;;;20.20
69597;BMP180;70000;51.176;-115.568;2023-08-17T08:23:29;86522.00;;;20.10
69597;BMP180;70000;51.176;-115.568;2023-08-17T08:25:59;86513.20;;;20.08
69597;BMP180;70000;51.176;-115.568;2023-08-17T08:28:29;86509.00;;;20.00
69597;BMP180;70000;51.176;-115.568;2023-08-17T08:31:05;86507.60;;;19.90
69597;BMP180;70000;51.176;-115.568;2023-08-17T08:33:34;86507.60;;;19.90
69597;BMP180;70000;51.176;-115.568;2023-08-17T08:36:04;86509.00;;;19.80
69597;BMP180;70000;51.176;-115.568;2023-08-17T08:38:35;86507.60;;;19.80
69597;BMP180;70000;51.176;-115.568;2023-08-17T08:41:05;86510.60;;;19.70
69597;BMP180;70000;51.176;-115.568;2023-08-17T08:43:38;86511.00;;;19.70
69597;BMP180;70000;51.176;-115.568;2023-08-17T08:46:09;86509.80;;;19.70
69597;BMP180;70000;51.176;-115.568;2023-08-17T08:48:42;86504.20;;;19.62
69597;BMP180;70000;51.176;-115.568;2023-08-17T08:51:23;86509.20;;;19.60
69597;BMP180;70000;51.176;-115.568;2023-08-17T08:54:01;86508.40;;;19.60
69597;BMP180;70000;51.176;-115.568;2023-08-17T08:56:38;86500.20;;;19.60
69597;BMP180;70000;51.176;-115.568;2023-08-17T08:59:09;86504.80;;;19.50
69597;BMP180;70000;51.176;-115.568;2023-08-17T09:01:40;86496.80;;;19.50
69597;BMP180;70000;51.176;-115.568;2023-08-17T09:04:10;86495.80;;;19.40
69597;BMP180;70000;51.176;-115.568;2023-08-17T09:06:42;86487.40;;;19.40
69597;BMP180;70000;51.176;-115.568;2023-08-17T09:09:15;86491.00;;;19.30
69597;BMP180;70000;51.176;-115.568;2023-08-17T09:11:46;86483.20;;;19.20
69597;BMP180;70000;51.176;-115.568;2023-08-17T09:14:16;86479.80;;;19.10
69597;BMP180;70000;51.176;-115.568;2023-08-17T09:16:46;86472.60;;;19.04
69597;BMP180;70000;51.176;-115.568;2023-08-17T09:19:15;86483.00;;;18.96
69597;BMP180;70000;51.176;-115.568;2023-08-17T09:21:45;86480.20;;;18.90
69597;BMP180;70000;51.176;-115.568;2023-08-17T09:24:17;86480.60;;;18.80
69597;BMP180;70000;51.176;-115.568;2023-08-17T09:26:49;86479.00;;;18.72
69597;BMP180;70000;51.176;-115.568;2023-08-17T09:29:20;86475.80;;;18.70
69597;BMP180;70000;51.176;-115.568;2023-08-17T09:31:50;86474.00;;;18.60
69597;BMP180;70000;51.176;-115.568;2023-08-17T09:34:20;86472.80;;;18.50
69597;BMP180;70000;51.176;-115.568;2023-08-17T09:36:50;86470.00;;;18.50
69597;BMP180;70000;51.176;-115.568;2023-08-17T09:39:19;86472.60;;;18.40
69597;BMP180;70000;51.176;-115.568;2023-08-17T09:41:49;86470.20;;;18.40
69597;BMP180;70000;51.176;-115.568;2023-08-17T09:44:19;86468.80;;;18.40
69597;BMP180;70000;51.176;-115.568;2023-08-17T09:46:49;86465.00;;;18.38
69597;BMP180;70000;51.176;-115.568;2023-08-17T09:49:18;86463.20;;;18.30
69597;BMP180;70000;51.176;-115.568;2023-08-17T09:51:49;86465.80;;;18.30
69597;BMP180;70000;51.176;-115.568;2023-08-17T09:54:24;86459.20;;;18.30
69597;BMP180;70000;51.176;-115.568;2023-08-17T09:56:56;86459.40;;;18.30
69597;BMP180;70000;51.176;-115.568;2023-08-17T09:59:26;86463.20;;;18.26
69597;BMP180;70000;51.176;-115.568;2023-08-17T10:01:58;86464.60;;;18.20
69597;BMP180;70000;51.176;-115.568;2023-08-17T10:04:29;86465.40;;;18.20
69597;BMP180;70000;51.176;-115.568;2023-08-17T10:07:05;86465.00;;;18.10
69597;BMP180;70000;51.176;-115.568;2023-08-17T10:09:42;86469.00;;;18.10
69597;BMP180;70000;51.176;-115.568;2023-08-17T10:12:17;86466.80;;;18.02
69597;BMP180;70000;51.176;-115.568;2023-08-17T10:14:58;86462.40;;;18.00
69597;BMP180;70000;51.176;-115.568;2023-08-17T10:17:37;86458.40;;;18.00
69597;BMP180;70000;51.176;-115.568;2023-08-17T10:20:10;86456.20;;;17.90
69597;BMP180;70000;51.176;-115.568;2023-08-17T10:22:51;86457.60;;;17.88
69597;BMP180;70000;51.176;-115.568;2023-08-17T10:25:24;86455.20;;;17.80
69597;BMP180;70000;51.176;-115.568;2023-08-17T10:27:56;86457.40;;;17.70
69597;BMP180;70000;51.176;-115.568;2023-08-17T10:30:45;86445.60;;;17.64
69597;BMP180;70000;51.176;-115.568;2023-08-17T10:33:15;86443.00;;;17.60
69597;BMP180;70000;51.176;-115.568;2023-08-17T10:35:46;86444.40;;;17.54
69597;BMP180;70000;51.176;-115.568;2023-08-17T10:38:16;86440.80;;;17.50
69597;BMP180;70000;51.176;-115.568;2023-08-17T10:41:13;86441.60;;;17.50
69597;BMP180;70000;51.176;-115.568;2023-08-17T10:43:59;86445.40;;;17.40
69597;BMP180;70000;51.176;-115.568;2023-08-17T10:50:20;86439.00;;;17.34
69597;BMP180;70000;51.176;-115.568;2023-08-17T10:52:50;86436.80;;;17.30
69597;BMP180;70000;51.176;-115.568;2023-08-17T10:55:46;86433.00;;;17.30
69597;BMP180;70000;51.176;-115.568;2023-08-17T10:58:21;86423.00;;;17.30
69597;BMP180;70000;51.176;-115.568;2023-08-17T11:00:55;86416.20;;;17.30
69597;BMP180;70000;51.176;-115.568;2023-08-17T11:03:25;86417.80;;;17.20
69597;BMP180;70000;51.176;-115.568;2023-08-17T11:05:58;86419.40;;;17.20
69597;BMP180;70000;51.176;-115.568;2023-08-17T11:08:40;86419.00;;;17.20
69597;BMP180;70000;51.176;-115.568;2023-08-17T11:11:21;86413.60;;;17.20
69597;BMP180;70000;51.176;-115.568;2023-08-17T11:13:53;86410.80;;;17.10
69597;BMP180;70000;51.176;-115.568;2023-08-17T11:16:25;86414.20;;;17.08
69597;BMP180;70000;51.176;-115.568;2023-08-17T11:18:54;86403.40;;;17.00
69597;BMP180;70000;51.176;-115.568;2023-08-17T11:21:27;86405.60;;;17.00
69597;BMP180;70000;51.176;-115.568;2023-08-17T11:23:57;86407.20;;;17.00
69597;BMP180;70000;51.176;-115.568;2023-08-17T11:26:27;86406.60;;;17.00
69597;BMP180;70000;51.176;-115.568;2023-08-17T11:29:03;86409.80;;;16.90
69597;BMP180;70000;51.176;-115.568;2023-08-17T11:31:34;86407.40;;;16.90
69597;BMP180;70000;51.176;-115.568;2023-08-17T11:34:04;86407.00;;;16.90
69597;BMP180;70000;51.176;-115.568;2023-08-17T11:36:35;86391.00;;;16.82
69597;BMP180;70000;51.176;-115.568;2023-08-17T11:39:05;86389.00;;;16.80
69597;BMP180;70000;51.176;-115.568;2023-08-17T11:41:37;86384.60;;;16.78
69597;BMP180;70000;51.176;-115.568;2023-08-17T11:44:06;86386.00;;;16.70
69597;BMP180;70000;51.176;-115.568;2023-08-17T11:46:35;86381.20;;;16.70
69597;BMP180;70000;51.176;-115.568;2023-08-17T11:49:05;86387.60;;;16.70
69597;BMP180;70000;51.176;-115.568;2023-08-17T11:51:34;86388.20;;;16.60
69597;BMP180;70000;51.176;-115.568;2023-08-17T11:54:03;86390.60;;;16.60
69597;BMP180;70000;51.176;-115.568;2023-08-17T11:56:37;86394.60;;;16.60
69597;BMP180;70000;51.176;-115.568;2023-08-17T11:59:10;86393.00;;;16.60
69597;BMP180;70000;51.176;-115.568;2023-08-17T12:01:42;86396.80;;;16.60
69597;BMP180;70000;51.176;-115.568;2023-08-17T12:04:11;86399.80;;;16.50
69597;BMP180;70000;51.176;-115.568;2023-08-17T12:06:44;86404.40;;;16.50
69597;BMP180;70000;51.176;-115.568;2023-08-17T12:09:13;86401.60;;;16.50
69597;BMP180;70000;51.176;-115.568;2023-08-17T12:11:44;86400.20;;;16.40
69597;BMP180;70000;51.176;-115.568;2023-08-17T12:14:14;86396.00;;;16.40
69597;BMP180;70000;51.176;-115.568;2023-08-17T12:16:48;86400.00;;;16.30
69597;BMP180;70000;51.176;-115.568;2023-08-17T12:19:19;86400.80;;;16.30
69597;BMP180;70000;51.176;-115.568;2023-08-17T12:21:49;86399.00;;;16.20
69597;BMP180;70000;51.176;-115.568;2023-08-17T12:24:19;86399.00;;;16.20
69597;BMP180;70000;51.176;-115.568;2023-08-17T12:26:48;86394.00;;;16.20
69597;BMP180;70000;51.176;-115.568;2023-08-17T12:29:18;86395.20;;;16.20
69597;BMP180;70000;51.176;-115.568;2023-08-17T12:31:48;86394.00;;;16.20
69597;BMP180;70000;51.176;-115.568;2023-08-17T12:34:17;86391.20;;;16.14
69597;BMP180;70000;51.176;-115.568;2023-08-17T12:36:49;86390.80;;;16.10
69597;BMP180;70000;51.176;-115.568;2023-08-17T12:39:18;86393.60;;;16.10
69597;BMP180;70000;51.176;-115.568;2023-08-17T12:44:54;86386.20;;;16.10
69597;BMP180;70000;51.176;-115.568;2023-08-17T12:47:24;86383.80;;;16.10
69597;BMP180;70000;51.176;-115.568;2023-08-17T12:49:53;86382.80;;;16.10
69597;BMP180;70000;51.176;-115.568;2023-08-17T12:52:23;86385.40;;;16.10
69597;BMP180;70000;51.176;-115.568;2023-08-17T12:54:53;86383.80;;;16.10
69597;BMP180;70000;51.176;-115.568;2023-08-17T12:57:22;86382.60;;;16.10
69597;BMP180;70000;51.176;-115.568;2023-08-17T12:59:52;86378.80;;;16.10
69597;BMP180;70000;51.176;-115.568;2023-08-17T13:02:23;86379.60;;;16.10
69597;BMP180;70000;51.176;-115.568;2023-08-17T13:04:53;86383.00;;;16.10
69597;BMP180;70000;51.176;-115.568;2023-08-17T13:07:22;86377.60;;;16.10
69597;BMP180;70000;51.176;-115.568;2023-08-17T13:09:52;86378.00;;;16.10
69597;BMP180;70000;51.176;-115.568;2023-08-17T13:12:22;86380.40;;;16.10
69597;BMP180;70000;51.176;-115.568;2023-08-17T13:14:52;86384.00;;;16.10
69597;BMP180;70000;51.176;-115.568;2023-08-17T13:17:21;86381.40;;;16.10
69597;BMP180;70000;51.176;-115.568;2023-08-17T13:19:51;86378.40;;;16.10
69597;BMP180;70000;51.176;-115.568;2023-08-17T13:22:20;86375.60;;;16.10
69597;BMP180;70000;51.176;-115.568;2023-08-17T13:24:52;86375.00;;;16.10
69597;BMP180;70000;51.176;-115.568;2023-08-17T13:27:21;86371.80;;;16.10
69597;BMP180;70000;51.176;-115.568;2023-08-17T13:29:52;86362.80;;;16.10
69597;BMP180;70000;51.176;-115.568;2023-08-17T13:32:21;86363.80;;;16.10
69597;BMP180;70000;51.176;-115.568;2023-08-17T13:34:51;86361.60;;;16.10
69597;BMP180;70000;51.176;-115.568;2023-08-17T13:37:21;86361.60;;;16.10
69597;BMP180;70000;51.176;-115.568;2023-08-17T13:39:51;86352.60;;;16.10
69597;BMP180;70000;51.176;-115.568;2023-08-17T13:42:20;86351.80;;;16.16
69597;BMP180;70000;51.176;-115.568;2023-08-17T13:44:49;86351.60;;;16.20
69597;BMP180;70000;51.176;-115.568;2023-08-17T13:47:19;86346.00;;;16.20
69597;BMP180;70000;51.176;-115.568;2023-08-17T13:49:49;86340.00;;;16.20
69597;BMP180;70000;51.176;-115.568;2023-08-17T13:52:18;86329.40;;;16.20
69597;BMP180;70000;51.176;-115.568;2023-08-17T13:54:48;86330.00;;;16.20
69597;BMP180;70000;51.176;-115.568;2023-08-17T13:57:18;86342.20;;;16.20
69597;BMP180;70000;51.176;-115.568;2023-08-17T13:59:47;86339.80;;;16.20
69597;BMP180;70000;51.176;-115.568;2023-08-17T14:02:17;86337.20;;;16.20
69597;BMP180;70000;51.176;-115.568;2023-08-17T14:04:46;86333.00;;;16.20
69597;BMP180;70000;51.176;-115.568;2023-08-17T14:07:15;86330.20;;;16.20
69597;BMP180;70000;51.176;-115.568;2023-08-17T14:09:45;86322.00;;;16.28
69597;BMP180;70000;51.176;-115.568;2023-08-17T14:12:33;86318.60;;;16.30
69597;BMP180;70000;51.176;-115.568;2023-08-17T14:15:03;86323.00;;;16.30
69597;BMP180;70000;51.176;-115.568;2023-08-17T14:17:33;86317.40;;;16.30
69597;BMP180;70000;51.176;-115.568;2023-08-17T14:20:02;86316.00;;;16.30
69597;BMP180;70000;51.176;-115.568;2023-08-17T14:22:34;86317.00;;;16.34